createdAt,value
2019-05-19T00:00:48.239Z,0.00
2019-05-19T00:01:48.233Z,0.00
2019-05-19T00:02:48.327Z,0.00
2019-05-19T00:03:48.205Z,0.00
2019-05-19T00:04:48.206Z,0.00
2019-05-19T00:05:48.177Z,0.00
2019-05-19T00:06:48.169Z,0.00
2019-05-19T00:07:48.194Z,0.00
2019-05-19T00:08:48.151Z,0.00
2019-05-19T00:09:48.140Z,0.00
2019-05-19T00:10:48.129Z,0.00
2019-05-19T00:11:48.119Z,0.00
2019-05-19T00:12:48.111Z,0.00
2019-05-19T00:13:48.108Z,0.00
2019-05-19T00:14:48.079Z,0.00
2019-05-19T00:15:48.072Z,0.00
2019-05-19T00:16:48.072Z,0.00
2019-05-19T00:17:48.076Z,0.00
2019-05-19T00:18:48.039Z,0.00
2019-05-19T00:19:48.030Z,0.00
2019-05-19T00:20:48.012Z,0.00
2019-05-19T00:21:47.999Z,0.00
2019-05-19T00:22:47.988Z,0.00
2019-05-19T00:23:47.999Z,0.00
2019-05-19T00:24:48.001Z,0.00
2019-05-19T00:25:47.957Z,0.00
2019-05-19T00:26:47.946Z,0.00
2019-05-19T00:27:47.939Z,0.00
2019-05-19T00:28:47.934Z,0.00
2019-05-19T00:29:47.918Z,0.00
2019-05-19T00:30:47.911Z,0.00
2019-05-19T00:31:47.892Z,0.00
2019-05-19T00:32:47.878Z,0.00
2019-05-19T00:33:47.866Z,0.00
2019-05-19T00:34:47.880Z,0.00
2019-05-19T00:35:47.845Z,0.00
2019-05-19T00:36:47.836Z,0.00
2019-05-19T00:37:47.824Z,0.00
2019-05-19T00:38:47.825Z,0.00
2019-05-19T00:39:47.798Z,0.00
2019-05-19T00:40:47.812Z,0.00
2019-05-19T00:41:47.777Z,0.00
2019-05-19T00:42:47.763Z,0.00
2019-05-19T00:43:47.771Z,0.00
2019-05-19T00:44:47.759Z,0.00
2019-05-19T00:45:47.736Z,0.00
2019-05-19T00:46:47.723Z,0.00
2019-05-19T00:47:47.706Z,0.00
2019-05-19T00:48:47.697Z,0.00
2019-05-19T00:49:47.702Z,0.00
2019-05-19T00:50:47.681Z,0.00
2019-05-19T00:51:47.665Z,0.00
2019-05-19T00:52:47.665Z,0.00
2019-05-19T00:53:47.642Z,0.00
2019-05-19T00:54:47.668Z,0.00
2019-05-19T00:55:47.652Z,0.00
2019-05-19T00:56:47.614Z,0.00
2019-05-19T00:57:47.596Z,0.00
2019-05-19T00:58:47.668Z,0.00
2019-05-19T00:59:47.573Z,0.00
2019-05-19T01:00:47.561Z,0.00
2019-05-19T01:01:47.566Z,0.00
2019-05-19T01:02:47.542Z,0.00
2019-05-19T01:03:47.529Z,0.00
2019-05-19T01:04:47.514Z,0.00
2019-05-19T01:05:47.517Z,0.00
2019-05-19T01:06:47.502Z,0.00
2019-05-19T01:07:47.480Z,0.00
2019-05-19T01:08:47.471Z,0.00
2019-05-19T01:09:47.459Z,0.00
2019-05-19T01:10:47.458Z,0.00
2019-05-19T01:11:47.445Z,0.00
2019-05-19T01:12:47.424Z,0.00
2019-05-19T01:13:47.416Z,0.00
2019-05-19T01:14:47.403Z,0.00
2019-05-19T01:15:47.441Z,0.00
2019-05-19T01:16:47.380Z,0.00
2019-05-19T01:17:47.367Z,0.00
2019-05-19T01:18:47.355Z,0.00
2019-05-19T01:19:55.633Z,0.00
2019-05-19T01:20:48.349Z,0.00
2019-05-19T01:21:47.330Z,0.00
2019-05-19T01:22:47.315Z,0.00
2019-05-19T01:23:47.298Z,0.00
2019-05-19T01:24:47.296Z,0.00
2019-05-19T01:25:47.297Z,0.00
2019-05-19T01:26:47.266Z,0.00
2019-05-19T01:27:47.264Z,0.00
2019-05-19T01:28:47.249Z,0.00
2019-05-19T01:29:47.234Z,0.00
2019-05-19T01:30:47.223Z,0.00
2019-05-19T01:31:47.216Z,0.00
2019-05-19T01:32:47.283Z,0.00
2019-05-19T01:33:47.188Z,0.00
2019-05-19T01:34:47.176Z,0.00
2019-05-19T01:35:47.166Z,0.00
2019-05-19T01:36:47.158Z,0.00
2019-05-19T01:37:47.140Z,0.00
2019-05-19T01:38:47.152Z,0.00
2019-05-19T01:39:47.137Z,0.00
2019-05-19T01:40:47.105Z,0.00
2019-05-19T01:41:47.093Z,0.00
2019-05-19T01:42:47.084Z,0.00
2019-05-19T01:43:47.072Z,0.00
2019-05-19T01:44:47.073Z,0.00
2019-05-19T01:45:47.046Z,0.00
2019-05-19T01:46:47.044Z,0.00
2019-05-19T01:47:47.024Z,0.00
2019-05-19T01:48:47.017Z,0.00
2019-05-19T01:49:47.009Z,0.00
2019-05-19T01:50:47.012Z,0.00
2019-05-19T01:51:46.982Z,0.00
2019-05-19T01:52:46.976Z,0.00
2019-05-19T01:53:46.971Z,0.00
2019-05-19T01:54:46.945Z,0.00
2019-05-19T01:55:46.943Z,0.00
2019-05-19T01:56:46.925Z,0.00
2019-05-19T01:57:46.914Z,0.00
2019-05-19T01:58:46.924Z,0.00
2019-05-19T01:59:46.895Z,0.00
2019-05-19T02:00:46.880Z,0.00
2019-05-19T02:01:46.870Z,0.00
2019-05-19T02:02:46.854Z,0.00
2019-05-19T02:03:46.871Z,0.00
2019-05-19T02:04:46.834Z,0.00
2019-05-19T02:05:46.821Z,0.00
2019-05-19T02:06:46.809Z,0.00
2019-05-19T02:07:46.805Z,0.00
2019-05-19T02:08:46.809Z,0.00
2019-05-19T02:09:46.792Z,0.00
2019-05-19T02:10:46.764Z,0.00
2019-05-19T02:11:46.758Z,0.00
2019-05-19T02:12:46.740Z,0.00
2019-05-19T02:13:46.731Z,0.00
2019-05-19T02:14:46.743Z,0.00
2019-05-19T02:15:46.710Z,0.00
2019-05-19T02:16:46.696Z,0.00
2019-05-19T02:17:46.687Z,0.00
2019-05-19T02:18:46.682Z,0.00
2019-05-19T02:19:46.683Z,0.00
2019-05-19T02:20:46.669Z,0.00
2019-05-19T02:21:46.641Z,0.00
2019-05-19T02:22:46.632Z,0.00
2019-05-19T02:23:46.621Z,0.00
2019-05-19T02:24:46.629Z,0.00
2019-05-19T02:25:46.618Z,0.00
2019-05-19T02:26:46.586Z,0.00
2019-05-19T02:27:46.579Z,0.00
2019-05-19T02:28:46.575Z,0.00
2019-05-19T02:29:46.568Z,0.00
2019-05-19T02:30:46.548Z,0.00
2019-05-19T02:31:46.532Z,0.00
2019-05-19T02:32:46.537Z,0.00
2019-05-19T02:33:46.517Z,0.00
2019-05-19T02:34:46.521Z,0.00
2019-05-19T02:35:46.502Z,0.00
2019-05-19T02:36:46.480Z,0.00
2019-05-19T02:37:46.468Z,0.00
2019-05-19T02:38:46.477Z,0.00
2019-05-19T02:39:46.473Z,0.00
2019-05-19T02:40:46.441Z,0.00
2019-05-19T02:41:46.423Z,0.00
2019-05-19T02:42:46.420Z,0.00
2019-05-19T02:43:46.406Z,0.00
2019-05-19T02:44:46.391Z,0.00
2019-05-19T02:45:46.396Z,0.00
2019-05-19T02:46:46.403Z,0.00
2019-05-19T02:47:46.371Z,0.00
2019-05-19T02:48:46.347Z,0.00
2019-05-19T02:49:46.351Z,0.00
2019-05-19T02:50:52.318Z,0.00
2019-05-19T02:51:47.325Z,0.00
2019-05-19T02:52:46.306Z,0.00
2019-05-19T02:53:46.299Z,0.00
2019-05-19T02:54:46.292Z,0.00
2019-05-19T02:55:46.310Z,0.00
2019-05-19T02:56:46.262Z,0.00
2019-05-19T02:57:46.249Z,0.00
2019-05-19T02:58:46.242Z,0.00
2019-05-19T02:59:46.231Z,0.00
2019-05-19T03:00:46.222Z,0.00
2019-05-19T03:01:46.254Z,0.00
2019-05-19T03:02:46.196Z,0.00
2019-05-19T03:03:46.189Z,0.00
2019-05-19T03:04:46.175Z,0.00
2019-05-19T03:05:46.165Z,0.00
2019-05-19T03:06:46.156Z,0.00
2019-05-19T03:07:46.156Z,0.00
2019-05-19T03:08:46.131Z,0.00
2019-05-19T03:09:46.121Z,0.00
2019-05-19T03:10:46.108Z,0.00
2019-05-19T03:11:46.130Z,0.00
2019-05-19T03:12:46.133Z,0.00
2019-05-19T03:13:46.076Z,0.00
2019-05-19T03:14:46.072Z,5.62
2019-05-19T03:15:46.056Z,5.62
2019-05-19T03:16:46.080Z,5.62
2019-05-19T03:17:46.032Z,5.62
2019-05-19T03:18:46.023Z,5.62
2019-05-19T03:19:46.009Z,11.25
2019-05-19T03:20:46.004Z,11.25
2019-05-19T03:21:45.992Z,11.25
2019-05-19T03:22:46.011Z,11.25
2019-05-19T03:23:45.966Z,11.25
2019-05-19T03:24:45.955Z,11.25
2019-05-19T03:25:45.954Z,11.25
2019-05-19T03:26:45.935Z,11.25
2019-05-19T03:27:45.923Z,11.25
2019-05-19T03:28:45.923Z,11.25
2019-05-19T03:29:45.902Z,16.88
2019-05-19T03:30:45.897Z,16.88
2019-05-19T03:31:45.882Z,16.88
2019-05-19T03:32:45.890Z,16.88
2019-05-19T03:33:45.891Z,16.88
2019-05-19T03:34:45.848Z,22.50
2019-05-19T03:35:45.832Z,22.50
2019-05-19T03:36:45.829Z,22.50
2019-05-19T03:37:45.825Z,22.50
2019-05-19T03:38:45.842Z,28.12
2019-05-19T03:39:45.788Z,28.12
2019-05-19T03:40:45.781Z,33.75
2019-05-19T03:41:45.770Z,33.75
2019-05-19T03:42:45.758Z,33.75
2019-05-19T03:43:45.750Z,39.38
2019-05-19T03:44:45.758Z,39.38
2019-05-19T03:45:45.724Z,45.00
2019-05-19T03:46:45.711Z,45.00
2019-05-19T03:47:45.725Z,50.62
2019-05-19T03:48:45.694Z,50.62
2019-05-19T03:49:45.678Z,56.25
2019-05-19T03:50:45.682Z,56.25
2019-05-19T03:51:45.662Z,61.88
2019-05-19T03:52:45.661Z,61.88
2019-05-19T03:53:45.655Z,67.50
2019-05-19T03:54:45.624Z,73.12
2019-05-19T03:55:45.610Z,73.12
2019-05-19T03:56:45.599Z,78.75
2019-05-19T03:57:45.590Z,78.75
2019-05-19T03:58:45.595Z,84.38
2019-05-19T03:59:45.565Z,90.00
2019-05-19T04:00:45.560Z,95.62
2019-05-19T04:01:45.545Z,95.62
2019-05-19T04:02:45.534Z,101.25
2019-05-19T04:03:45.544Z,106.88
2019-05-19T04:04:45.510Z,106.88
2019-05-19T04:05:45.508Z,106.88
2019-05-19T04:06:45.498Z,112.50
2019-05-19T04:07:45.483Z,118.12
2019-05-19T04:08:45.469Z,123.75
2019-05-19T04:09:45.469Z,129.38
2019-05-19T04:10:45.465Z,135.00
2019-05-19T04:11:45.436Z,140.62
2019-05-19T04:12:45.422Z,140.62
2019-05-19T04:13:45.417Z,151.88
2019-05-19T04:14:45.426Z,157.50
2019-05-19T04:15:45.414Z,140.62
2019-05-19T04:16:45.385Z,168.75
2019-05-19T04:17:45.373Z,174.38
2019-05-19T04:18:45.361Z,180.00
2019-05-19T04:19:45.358Z,185.62
2019-05-19T04:20:45.352Z,191.25
2019-05-19T04:21:49.088Z,191.25
2019-05-19T04:22:45.314Z,191.25
2019-05-19T04:23:45.308Z,196.88
2019-05-19T04:24:45.306Z,202.50
2019-05-19T04:25:45.299Z,202.50
2019-05-19T04:26:45.273Z,208.12
2019-05-19T04:27:45.258Z,213.75
2019-05-19T04:28:45.250Z,213.75
2019-05-19T04:29:45.235Z,219.38
2019-05-19T04:30:45.241Z,225.00
2019-05-19T04:31:45.237Z,225.00
2019-05-19T04:32:45.200Z,230.62
2019-05-19T04:33:45.193Z,236.25
2019-05-19T04:34:45.178Z,241.88
2019-05-19T04:35:45.188Z,241.88
2019-05-19T04:36:45.226Z,253.12
2019-05-19T04:37:45.147Z,258.75
2019-05-19T04:38:45.136Z,275.62
2019-05-19T04:39:45.135Z,303.75
2019-05-19T04:40:45.116Z,343.12
2019-05-19T04:41:45.115Z,315.00
2019-05-19T04:42:45.086Z,320.62
2019-05-19T04:43:45.080Z,309.38
2019-05-19T04:44:45.066Z,326.25
2019-05-19T04:45:45.067Z,326.25
2019-05-19T04:46:45.044Z,331.88
2019-05-19T04:47:45.032Z,331.88
2019-05-19T04:48:45.022Z,348.75
2019-05-19T04:49:45.022Z,365.62
2019-05-19T04:50:45.037Z,376.88
2019-05-19T04:51:45.001Z,393.75
2019-05-19T04:52:44.996Z,410.62
2019-05-19T04:53:44.986Z,421.88
2019-05-19T04:54:45.009Z,410.62
2019-05-19T04:55:44.976Z,410.62
2019-05-19T04:56:44.972Z,416.25
2019-05-19T04:57:44.966Z,421.88
2019-05-19T04:58:44.939Z,427.50
2019-05-19T04:59:44.897Z,433.12
2019-05-19T05:00:44.911Z,438.75
2019-05-19T05:01:44.906Z,450.00
2019-05-19T05:02:44.898Z,478.12
2019-05-19T05:03:44.855Z,500.62
2019-05-19T05:04:44.859Z,545.62
2019-05-19T05:05:44.837Z,579.38
2019-05-19T05:06:44.833Z,585.00
2019-05-19T05:07:44.826Z,607.50
2019-05-19T05:08:44.802Z,630.00
2019-05-19T05:09:44.788Z,630.00
2019-05-19T05:10:44.781Z,641.25
2019-05-19T05:11:44.766Z,680.62
2019-05-19T05:12:44.776Z,708.75
2019-05-19T05:13:44.743Z,753.75
2019-05-19T05:14:44.732Z,798.75
2019-05-19T05:15:44.740Z,787.50
2019-05-19T05:16:44.707Z,776.25
2019-05-19T05:17:44.730Z,849.38
2019-05-19T05:18:47.603Z,933.75
2019-05-19T05:19:44.681Z,911.25
2019-05-19T05:20:44.699Z,849.38
2019-05-19T05:21:44.652Z,770.62
2019-05-19T05:22:44.654Z,855.00
2019-05-19T05:23:44.656Z,855.00
2019-05-19T05:24:44.621Z,877.50
2019-05-19T05:25:44.662Z,905.62
2019-05-19T05:26:44.598Z,950.62
2019-05-19T05:27:44.585Z,1057.50
2019-05-19T05:28:44.614Z,1158.75
2019-05-19T05:29:44.589Z,1181.25
2019-05-19T05:30:44.554Z,1119.38
2019-05-19T05:31:44.549Z,1080.00
2019-05-19T05:32:44.537Z,1113.75
2019-05-19T05:33:44.549Z,1091.25
2019-05-19T05:34:44.677Z,1170.00
2019-05-19T05:35:44.517Z,1096.88
2019-05-19T05:36:44.555Z,950.62
2019-05-19T05:37:44.474Z,1001.25
2019-05-19T05:38:44.469Z,888.75
2019-05-19T05:39:44.473Z,849.38
2019-05-19T05:40:44.443Z,967.50
2019-05-19T05:41:44.439Z,1119.38
2019-05-19T05:42:44.424Z,967.50
2019-05-19T05:43:44.422Z,832.50
2019-05-19T05:44:44.407Z,781.88
2019-05-19T05:45:44.406Z,765.00
2019-05-19T05:46:44.371Z,703.12
2019-05-19T05:47:44.365Z,646.88
2019-05-19T05:48:47.033Z,641.25
2019-05-19T05:49:44.360Z,635.62
2019-05-19T05:50:44.341Z,635.62
2019-05-19T05:51:44.323Z,630.00
2019-05-19T05:52:44.305Z,646.88
2019-05-19T05:53:44.293Z,652.50
2019-05-19T05:54:44.308Z,669.38
2019-05-19T05:55:44.276Z,686.25
2019-05-19T05:56:44.257Z,691.88
2019-05-19T05:57:44.251Z,714.38
2019-05-19T05:58:44.237Z,731.25
2019-05-19T05:59:44.223Z,748.12
2019-05-19T06:00:44.225Z,748.12
2019-05-19T06:01:44.202Z,759.38
2019-05-19T06:02:44.197Z,776.25
2019-05-19T06:03:44.182Z,781.88
2019-05-19T06:04:44.187Z,810.00
2019-05-19T06:05:44.207Z,838.12
2019-05-19T06:06:45.905Z,821.25
2019-05-19T06:07:44.169Z,838.12
2019-05-19T06:08:44.129Z,838.12
2019-05-19T06:09:44.117Z,832.50
2019-05-19T06:10:44.250Z,832.50
2019-05-19T06:11:44.091Z,832.50
2019-05-19T06:12:44.082Z,832.50
2019-05-19T06:13:44.086Z,832.50
2019-05-19T06:14:44.057Z,838.12
2019-05-19T06:15:44.079Z,843.75
2019-05-19T06:16:44.041Z,838.12
2019-05-19T06:17:44.025Z,843.75
2019-05-19T06:18:44.019Z,849.38
2019-05-19T06:19:44.009Z,849.38
2019-05-19T06:20:43.993Z,849.38
2019-05-19T06:21:43.996Z,849.38
2019-05-19T06:22:55.993Z,855.00
2019-05-19T06:23:44.991Z,855.00
2019-05-19T06:24:43.959Z,860.62
2019-05-19T06:25:43.952Z,871.88
2019-05-19T06:26:43.933Z,888.75
2019-05-19T06:27:43.921Z,911.25
2019-05-19T06:28:43.908Z,950.62
2019-05-19T06:29:43.902Z,1006.88
2019-05-19T06:30:43.931Z,1046.25
2019-05-19T06:31:43.886Z,1091.25
2019-05-19T06:32:43.873Z,1096.88
2019-05-19T06:33:43.848Z,1158.75
2019-05-19T06:34:43.839Z,1186.88
2019-05-19T06:35:43.861Z,1265.62
2019-05-19T06:36:43.839Z,1355.62
2019-05-19T06:37:43.809Z,1355.62
2019-05-19T06:38:43.816Z,1299.38
2019-05-19T06:39:43.784Z,1288.12
2019-05-19T06:40:43.771Z,1293.75
2019-05-19T06:41:43.781Z,1333.12
2019-05-19T06:42:43.830Z,1383.75
2019-05-19T06:43:43.741Z,1378.12
2019-05-19T06:44:43.737Z,1473.75
2019-05-19T06:45:43.719Z,1558.12
2019-05-19T06:46:43.729Z,1586.25
2019-05-19T06:47:43.695Z,1518.75
2019-05-19T06:48:43.682Z,1451.25
2019-05-19T06:49:43.677Z,1361.25
2019-05-19T06:50:43.660Z,1305.00
2019-05-19T06:51:43.668Z,1310.62
2019-05-19T06:52:43.636Z,1265.62
2019-05-19T06:53:43.631Z,1271.25
2019-05-19T06:54:43.621Z,1226.25
2019-05-19T06:55:43.614Z,1220.62
2019-05-19T06:56:43.613Z,1248.75
2019-05-19T06:57:43.598Z,1293.75
2019-05-19T06:58:43.573Z,1327.50
2019-05-19T06:59:43.572Z,1310.62
2019-05-19T07:00:43.552Z,1254.38
2019-05-19T07:01:43.539Z,1248.75
2019-05-19T07:02:43.533Z,1271.25
2019-05-19T07:03:43.525Z,1299.38
2019-05-19T07:04:43.502Z,1350.00
2019-05-19T07:05:43.714Z,1411.88
2019-05-19T07:06:43.537Z,1485.00
2019-05-19T07:07:43.483Z,1597.50
2019-05-19T07:08:43.470Z,1490.62
2019-05-19T07:09:57.522Z,1445.62
2019-05-19T07:10:44.439Z,1395.00
2019-05-19T07:11:43.447Z,1350.00
2019-05-19T07:12:43.431Z,1338.75
2019-05-19T07:13:43.418Z,1333.12
2019-05-19T07:14:43.395Z,1344.38
2019-05-19T07:15:43.407Z,1293.75
2019-05-19T07:16:43.376Z,1327.50
2019-05-19T07:17:43.385Z,1327.50
2019-05-19T07:18:43.363Z,1327.50
2019-05-19T07:19:43.341Z,1428.75
2019-05-19T07:20:43.346Z,1383.75
2019-05-19T07:21:43.324Z,1344.38
2019-05-19T07:22:43.344Z,1389.38
2019-05-19T07:23:43.313Z,1462.50
2019-05-19T07:24:43.292Z,1715.62
2019-05-19T07:25:43.275Z,1963.12
2019-05-19T07:26:43.266Z,1991.25
2019-05-19T07:27:43.251Z,2205.00
2019-05-19T07:28:43.275Z,2193.75
2019-05-19T07:29:43.235Z,2385.00
2019-05-19T07:30:43.222Z,2593.12
2019-05-19T07:31:43.206Z,2666.25
2019-05-19T07:32:43.196Z,2520.00
2019-05-19T07:33:43.185Z,2430.00
2019-05-19T07:34:43.200Z,2413.12
2019-05-19T07:35:43.167Z,2705.62
2019-05-19T07:36:43.158Z,3588.75
2019-05-19T07:37:43.171Z,3943.12
2019-05-19T07:38:43.133Z,3813.75
2019-05-19T07:39:43.136Z,3448.12
2019-05-19T07:40:43.115Z,3633.75
2019-05-19T07:41:43.099Z,4010.62
2019-05-19T07:42:43.091Z,4224.38
2019-05-19T07:43:43.080Z,4438.12
2019-05-19T07:44:45.314Z,4663.12
2019-05-19T07:45:43.086Z,4488.75
2019-05-19T07:46:43.045Z,4213.12
2019-05-19T07:47:43.036Z,4359.38
2019-05-19T07:48:43.026Z,3352.50
2019-05-19T07:49:43.022Z,3414.38
2019-05-19T07:50:43.005Z,3701.25
2019-05-19T07:51:43.019Z,4173.75
2019-05-19T07:52:42.997Z,4449.38
2019-05-19T07:53:43.480Z,4381.88
2019-05-19T07:54:42.960Z,4134.38
2019-05-19T07:55:42.975Z,3802.50
2019-05-19T07:56:42.955Z,3982.50
2019-05-19T07:57:42.934Z,4111.88
2019-05-19T07:58:42.921Z,4162.50
2019-05-19T07:59:42.914Z,4483.12
2019-05-19T08:00:42.962Z,4640.62
2019-05-19T08:01:42.911Z,3898.12
2019-05-19T08:02:42.879Z,3262.50
2019-05-19T08:03:42.867Z,4021.88
2019-05-19T08:04:42.862Z,3628.12
2019-05-19T08:05:42.863Z,3684.38
2019-05-19T08:06:42.844Z,4325.62
2019-05-19T08:07:42.837Z,4685.62
2019-05-19T08:08:42.823Z,4488.75
2019-05-19T08:09:42.806Z,4584.38
2019-05-19T08:10:42.810Z,4668.75
2019-05-19T08:11:42.806Z,4719.38
2019-05-19T08:12:42.778Z,4050.00
2019-05-19T08:13:42.765Z,4100.62
2019-05-19T08:14:42.782Z,3796.88
2019-05-19T08:15:42.744Z,3375.00
2019-05-19T08:16:42.738Z,3065.62
2019-05-19T08:17:42.746Z,3915.00
2019-05-19T08:18:42.717Z,2998.12
2019-05-19T08:19:42.708Z,3470.62
2019-05-19T08:20:42.709Z,3155.62
2019-05-19T08:21:42.687Z,3369.38
2019-05-19T08:22:42.675Z,3802.50
2019-05-19T08:23:58.564Z,2356.88
2019-05-19T08:24:43.655Z,2643.75
2019-05-19T08:25:42.647Z,2711.25
2019-05-19T08:26:42.687Z,2908.12
2019-05-19T08:27:42.628Z,3110.62
2019-05-19T08:28:42.626Z,3583.12
2019-05-19T08:29:42.605Z,3532.50
2019-05-19T08:30:42.594Z,3498.75
2019-05-19T08:31:42.588Z,3960.00
2019-05-19T08:32:42.627Z,4005.00
2019-05-19T08:33:42.585Z,4218.75
2019-05-19T08:34:42.549Z,4455.00
2019-05-19T08:35:42.543Z,4426.88
2019-05-19T08:36:42.554Z,4398.75
2019-05-19T08:37:42.531Z,4466.25
2019-05-19T08:38:42.521Z,4573.12
2019-05-19T08:39:42.504Z,4573.12
2019-05-19T08:40:42.493Z,4123.12
2019-05-19T08:41:42.482Z,4027.50
2019-05-19T08:42:42.508Z,3217.50
2019-05-19T08:43:42.465Z,3060.00
2019-05-19T08:44:42.452Z,3335.62
2019-05-19T08:45:42.448Z,3830.62
2019-05-19T08:46:42.429Z,3650.62
2019-05-19T08:47:42.427Z,3555.00
2019-05-19T08:48:42.421Z,3195.00
2019-05-19T08:49:42.401Z,3099.38
2019-05-19T08:50:42.386Z,2401.88
2019-05-19T08:51:42.418Z,2002.50
2019-05-19T08:52:42.373Z,2137.50
2019-05-19T08:53:42.382Z,2491.88
2019-05-19T08:54:42.346Z,3498.75
2019-05-19T08:55:42.337Z,4134.38
2019-05-19T08:56:42.336Z,3988.12
2019-05-19T08:57:42.329Z,3549.38
2019-05-19T08:58:42.320Z,2739.38
2019-05-19T08:59:42.293Z,2255.62
2019-05-19T09:00:42.292Z,2176.88
2019-05-19T09:01:42.279Z,2593.12
2019-05-19T09:02:42.267Z,2728.12
2019-05-19T09:03:42.273Z,3875.62
2019-05-19T09:04:42.264Z,4263.75
2019-05-19T09:05:42.249Z,3735.00
2019-05-19T09:06:42.231Z,4145.62
2019-05-19T09:07:42.230Z,4061.25
2019-05-19T09:08:42.203Z,4443.75
2019-05-19T09:09:42.209Z,4376.25
2019-05-19T09:10:42.188Z,4837.50
2019-05-19T09:11:42.170Z,5034.38
2019-05-19T09:12:42.168Z,5040.00
2019-05-19T09:13:42.160Z,4775.62
2019-05-19T09:14:42.162Z,4460.62
2019-05-19T09:15:42.135Z,4938.75
2019-05-19T09:16:42.132Z,5321.25
2019-05-19T09:17:42.114Z,4792.50
2019-05-19T09:18:42.120Z,4573.12
2019-05-19T09:19:42.111Z,5574.38
2019-05-19T09:20:42.107Z,4815.00
2019-05-19T09:21:42.111Z,3504.38
2019-05-19T09:22:42.064Z,4719.38
2019-05-19T09:23:42.055Z,4128.75
2019-05-19T09:24:42.047Z,3678.75
2019-05-19T09:25:42.070Z,4995.00
2019-05-19T09:26:42.025Z,4764.38
2019-05-19T09:27:42.024Z,3571.88
2019-05-19T09:28:42.010Z,4471.88
2019-05-19T09:29:42.005Z,4820.62
2019-05-19T09:30:41.996Z,3695.62
2019-05-19T09:31:41.988Z,4291.88
2019-05-19T09:32:41.974Z,4680.00
2019-05-19T09:33:41.960Z,3262.50
2019-05-19T09:34:41.946Z,3690.00
2019-05-19T09:35:41.951Z,4308.75
2019-05-19T09:36:41.930Z,3785.62
2019-05-19T09:37:41.927Z,3571.88
2019-05-19T09:38:41.911Z,3971.25
2019-05-19T09:39:41.898Z,4095.00
2019-05-19T09:40:41.900Z,4106.25
2019-05-19T09:41:41.879Z,4106.25
2019-05-19T09:42:41.883Z,4398.75
2019-05-19T09:43:41.866Z,4016.25
2019-05-19T09:44:41.849Z,5889.38
2019-05-19T09:45:41.856Z,5253.75
2019-05-19T09:46:41.844Z,5428.12
2019-05-19T09:47:41.828Z,5630.62
2019-05-19T09:48:41.819Z,5478.75
2019-05-19T09:49:41.804Z,5124.38
2019-05-19T09:50:41.800Z,5703.75
2019-05-19T09:51:41.796Z,5771.25
2019-05-19T09:52:41.783Z,5754.38
2019-05-19T09:53:41.771Z,5658.75
2019-05-19T09:54:45.317Z,5613.75
2019-05-19T09:55:41.748Z,5664.38
2019-05-19T09:56:41.751Z,5793.75
2019-05-19T09:57:41.732Z,5900.62
2019-05-19T09:58:41.767Z,5776.88
2019-05-19T09:59:41.716Z,5242.50
2019-05-19T10:00:41.716Z,5191.88
2019-05-19T10:01:41.712Z,5163.75
2019-05-19T10:02:41.703Z,5304.38
2019-05-19T10:03:41.679Z,5675.62
2019-05-19T10:04:41.668Z,5490.00
2019-05-19T10:05:41.659Z,5816.25
2019-05-19T10:06:41.754Z,6001.88
2019-05-19T10:07:41.681Z,6187.50
2019-05-19T10:08:41.677Z,6322.50
2019-05-19T10:09:41.640Z,6125.62
2019-05-19T10:10:41.628Z,5900.62
2019-05-19T10:11:41.618Z,5827.50
2019-05-19T10:12:41.666Z,6018.75
2019-05-19T10:13:41.620Z,6148.12
2019-05-19T10:14:41.587Z,5754.38
2019-05-19T10:15:41.610Z,5940.00
2019-05-19T10:16:41.571Z,6103.12
2019-05-19T10:17:41.569Z,5979.38
2019-05-19T10:18:41.549Z,5838.75
2019-05-19T10:19:41.541Z,5838.75
2019-05-19T10:20:41.534Z,4691.25
2019-05-19T10:21:41.527Z,5805.00
2019-05-19T10:22:41.530Z,5540.62
2019-05-19T10:23:41.507Z,5900.62
2019-05-19T10:24:56.339Z,5000.62
2019-05-19T10:25:42.496Z,2604.38
2019-05-19T10:26:41.482Z,2536.88
2019-05-19T10:27:41.489Z,1608.75
2019-05-19T10:28:41.467Z,1603.12
2019-05-19T10:29:41.456Z,1636.88
2019-05-19T10:30:41.458Z,1895.62
2019-05-19T10:31:41.438Z,3020.62
2019-05-19T10:32:41.466Z,3082.50
2019-05-19T10:33:41.429Z,3240.00
2019-05-19T10:34:41.406Z,3150.00
2019-05-19T10:35:41.399Z,2835.00
2019-05-19T10:36:41.397Z,2643.75
2019-05-19T10:37:41.382Z,2908.12
2019-05-19T10:38:41.381Z,3206.25
2019-05-19T10:39:41.358Z,3071.25
2019-05-19T10:40:41.436Z,3453.75
2019-05-19T10:41:41.345Z,2745.00
2019-05-19T10:42:41.346Z,2002.50
2019-05-19T10:43:41.335Z,2345.62
2019-05-19T10:44:41.315Z,2525.62
2019-05-19T10:45:41.308Z,4516.88
2019-05-19T10:46:41.297Z,5428.12
2019-05-19T10:47:41.280Z,5743.12
2019-05-19T10:48:41.293Z,6069.38
2019-05-19T10:49:43.127Z,6148.12
2019-05-19T10:50:41.257Z,6001.88
2019-05-19T10:51:41.243Z,5040.00
2019-05-19T10:52:41.254Z,5855.62
2019-05-19T10:53:41.230Z,5838.75
2019-05-19T10:54:41.233Z,4252.50
2019-05-19T10:55:41.206Z,1935.00
2019-05-19T10:56:41.195Z,1237.50
2019-05-19T10:57:41.186Z,1170.00
2019-05-19T10:58:41.180Z,1198.12
2019-05-19T10:59:41.166Z,1310.62
2019-05-19T11:00:41.169Z,1575.00
2019-05-19T11:01:41.150Z,1940.62
2019-05-19T11:02:41.139Z,4815.00
2019-05-19T11:03:41.134Z,4151.25
2019-05-19T11:04:41.122Z,3785.62
2019-05-19T11:05:41.121Z,3791.25
2019-05-19T11:06:41.117Z,3802.50
2019-05-19T11:07:41.096Z,3780.00
2019-05-19T11:08:41.074Z,4128.75
2019-05-19T11:09:41.071Z,4916.25
2019-05-19T11:10:41.076Z,5270.62
2019-05-19T11:11:41.055Z,5855.62
2019-05-19T11:12:41.038Z,6316.88
2019-05-19T11:13:41.030Z,6333.75
2019-05-19T11:14:41.021Z,6030.00
2019-05-19T11:15:41.028Z,5394.38
2019-05-19T11:16:41.003Z,4404.38
2019-05-19T11:17:40.992Z,4899.38
2019-05-19T11:18:40.981Z,2435.62
2019-05-19T11:19:40.973Z,2278.12
2019-05-19T11:20:40.972Z,2379.38
2019-05-19T11:21:40.963Z,5163.75
2019-05-19T11:22:40.946Z,5000.62
2019-05-19T11:23:40.974Z,5630.62
2019-05-19T11:24:40.928Z,6080.62
2019-05-19T11:25:51.223Z,5850.00
2019-05-19T11:26:41.955Z,5197.50
2019-05-19T11:27:40.896Z,5855.62
2019-05-19T11:28:40.896Z,5529.38
2019-05-19T11:29:40.883Z,5355.00
2019-05-19T11:30:40.872Z,5546.25
2019-05-19T11:31:40.877Z,6530.62
2019-05-19T11:32:40.874Z,6738.75
2019-05-19T11:33:40.845Z,4505.62
2019-05-19T11:34:40.833Z,2975.62
2019-05-19T11:35:40.828Z,3324.38
2019-05-19T11:36:40.860Z,3993.75
2019-05-19T11:37:40.806Z,3600.00
2019-05-19T11:38:40.798Z,3791.25
2019-05-19T11:39:40.790Z,5473.12
2019-05-19T11:40:40.805Z,4033.12
2019-05-19T11:41:40.771Z,3262.50
2019-05-19T11:42:40.778Z,3307.50
2019-05-19T11:43:40.767Z,5973.75
2019-05-19T11:44:40.752Z,4629.38
2019-05-19T11:45:40.732Z,4860.00
2019-05-19T11:46:40.732Z,4421.25
2019-05-19T11:47:40.765Z,3391.88
2019-05-19T11:48:40.716Z,4550.62
2019-05-19T11:49:40.702Z,4815.00
2019-05-19T11:50:42.175Z,2368.12
2019-05-19T11:51:40.677Z,2683.12
2019-05-19T11:52:40.679Z,2025.00
2019-05-19T11:53:40.679Z,2936.25
2019-05-19T11:54:40.646Z,1777.50
2019-05-19T11:55:40.663Z,1563.75
2019-05-19T11:56:40.628Z,1839.38
2019-05-19T11:57:40.625Z,1653.75
2019-05-19T11:58:40.610Z,1119.38
2019-05-19T11:59:40.619Z,1001.25
2019-05-19T12:00:40.651Z,905.62
2019-05-19T12:01:40.578Z,843.75
2019-05-19T12:02:40.567Z,821.25
2019-05-19T12:03:40.561Z,781.88
2019-05-19T12:04:40.551Z,748.12
2019-05-19T12:05:40.554Z,731.25
2019-05-19T12:06:40.532Z,731.25
2019-05-19T12:07:40.532Z,720.00
2019-05-19T12:08:40.528Z,697.50
2019-05-19T12:09:40.501Z,686.25
2019-05-19T12:10:40.524Z,697.50
2019-05-19T12:11:40.516Z,720.00
2019-05-19T12:12:40.473Z,742.50
2019-05-19T12:13:40.466Z,765.00
2019-05-19T12:14:40.449Z,793.12
2019-05-19T12:15:40.436Z,810.00
2019-05-19T12:16:40.453Z,821.25
2019-05-19T12:17:40.414Z,826.88
2019-05-19T12:18:40.407Z,815.62
2019-05-19T12:19:40.400Z,804.38
2019-05-19T12:20:40.392Z,787.50
2019-05-19T12:21:40.382Z,765.00
2019-05-19T12:22:40.389Z,736.88
2019-05-19T12:23:40.357Z,703.12
2019-05-19T12:24:40.347Z,663.75
2019-05-19T12:25:40.344Z,624.38
2019-05-19T12:26:40.317Z,590.62
2019-05-19T12:27:40.309Z,573.75
2019-05-19T12:28:40.297Z,556.88
2019-05-19T12:29:40.291Z,545.62
2019-05-19T12:30:40.288Z,540.00
2019-05-19T12:31:40.273Z,528.75